Time;durP1;ratioP1;P1;durP2;ratioP2;P2;SDS_P1;SDS_P2;PMS_P1;PMS_P2;Temp;Humidity;BMP_temperature;BMP_pressure;BME280_temperature;BME280_humidity;BME280_pressure;Samples;Min_cycle;Max_cycle;Signal;HPM_P1;HPM_P2
2021/01/05 00:01:13;;;;;;;;;;;19.40;55.90;;;;;;5054433;28;1280;-70
2021/01/05 00:03:38;;;;;;;;;;;19.40;55.90;;;;;;5058413;28;1072;-69
2021/01/05 00:06:04;;;;;;;;;;;19.40;55.90;;;;;;5074074;28;1298;-69
2021/01/05 00:08:30;;;;;;;;;;;19.40;56.00;;;;;;5074085;28;1414;-69
2021/01/05 00:10:55;;;;;;;;;;;19.30;55.90;;;;;;5073091;28;1295;-69
2021/01/05 00:13:20;;;;;;;;;;;19.40;56.00;;;;;;5068848;28;1318;-70
2021/01/05 00:15:46;;;;;;;;;;;19.30;55.90;;;;;;5053931;28;1211;-69
2021/01/05 00:18:11;;;;;;;;;;;19.40;56.00;;;;;;5052994;28;1960;-70
2021/01/05 00:20:37;;;;;;;;;;;19.30;56.00;;;;;;5053968;28;1256;-68
2021/01/05 00:23:02;;;;;;;;;;;19.30;55.90;;;;;;5053754;28;1308;-68
2021/01/05 00:25:28;;;;;;;;;;;19.30;56.00;;;;;;5053544;28;1362;-69
2021/01/05 00:27:54;;;;;;;;;;;19.40;56.10;;;;;;5053694;28;1284;-69
2021/01/05 00:30:20;;;;;;;;;;;19.30;56.10;;;;;;5051600;28;1095;-68
2021/01/05 00:32:47;;;;;;;;;;;19.30;56.00;;;;;;5053459;28;973;-69
2021/01/05 00:35:13;;;;;;;;;;;19.30;56.10;;;;;;5053172;28;1355;-69
2021/01/05 00:37:38;;;;;;;;;;;19.30;56.10;;;;;;5053260;28;1967;-69
2021/01/05 00:40:05;;;;;;;;;;;19.30;56.10;;;;;;5053734;28;1315;-68
2021/01/05 00:42:30;;;;;;;;;;;19.30;56.10;;;;;;5052393;28;1307;-70
2021/01/05 00:44:56;;;;;;;;;;;19.30;56.10;;;;;;5053037;28;1295;-69
2021/01/05 00:47:21;;;;;;;;;;;19.30;56.10;;;;;;5052837;28;1428;-69
2021/01/05 00:49:47;;;;;;;;;;;19.30;56.10;;;;;;5053344;28;1260;-70
2021/01/05 00:52:12;;;;;;;;;;;19.30;56.20;;;;;;5053552;28;1416;-70
2021/01/05 00:54:38;;;;;;;;;;;19.30;56.10;;;;;;5052305;28;1383;-70
2021/01/05 00:57:04;;;;;;;;;;;19.30;56.20;;;;;;5055759;28;1973;-69
2021/01/05 00:59:30;;;;;;;;;;;19.30;56.20;;;;;;5044559;28;1392;-69
2021/01/05 01:01:56;;;;;;;;;;;19.30;56.20;;;;;;5052101;28;1347;-69
2021/01/05 01:04:21;;;;;;;;;;;19.30;56.20;;;;;;5053236;28;1230;-69
2021/01/05 01:06:47;;;;;;;;;;;19.30;56.20;;;;;;5051559;28;1339;-69
2021/01/05 01:09:12;;;;;;;;;;;19.30;56.20;;;;;;5053239;28;1351;-68
2021/01/05 01:11:37;;;;;;;;;;;19.30;56.20;;;;;;5052232;28;1371;-69
2021/01/05 01:14:04;;;;;;;;;;;19.30;56.20;;;;;;5056039;28;1298;-69
2021/01/05 01:16:29;;;;;;;;;;;19.30;56.30;;;;;;5051162;28;1897;-69
2021/01/05 01:18:55;;;;;;;;;;;19.30;56.30;;;;;;5053098;28;1343;-69
2021/01/05 01:21:20;;;;;;;;;;;19.20;56.20;;;;;;5052688;28;1323;-68
2021/01/05 01:23:46;;;;;;;;;;;19.20;56.20;;;;;;5052877;28;1260;-69
2021/01/05 01:26:11;;;;;;;;;;;19.30;56.30;;;;;;5052643;28;1342;-69
2021/01/05 01:28:37;;;;;;;;;;;19.30;56.30;;;;;;5052958;28;1092;-70
2021/01/05 01:31:02;;;;;;;;;;;19.30;56.30;;;;;;5052628;28;1244;-69
2021/01/05 01:33:28;;;;;;;;;;;19.30;56.30;;;;;;5052796;28;1186;-69
2021/01/05 01:35:53;;;;;;;;;;;19.30;56.30;;;;;;5065707;28;1369;-69
2021/01/05 01:38:19;;;;;;;;;;;19.20;56.30;;;;;;5034484;28;1930;-69
2021/01/05 01:40:44;;;;;;;;;;;19.30;56.30;;;;;;5051070;28;1312;-69
2021/01/05 01:43:10;;;;;;;;;;;19.20;56.30;;;;;;5052852;28;1295;-69
2021/01/05 01:45:36;;;;;;;;;;;19.20;56.30;;;;;;5052049;28;1406;-70
2021/01/05 01:48:01;;;;;;;;;;;19.20;56.30;;;;;;5050726;28;1287;-70
2021/01/05 01:50:28;;;;;;;;;;;19.20;56.30;;;;;;5051499;28;1182;-70
2021/01/05 01:53:02;;;;;;;;;;;19.20;56.30;;;;;;5052337;28;1363;-68
2021/01/05 01:55:30;;;;;;;;;;;19.20;56.40;;;;;;5051637;28;1401;-70
2021/01/05 01:58:11;;;;;;;;;;;19.20;56.40;;;;;;5062060;28;1930;-69
2021/01/05 02:00:42;;;;;;;;;;;19.20;56.40;;;;;;5021762;28;1053;-70
2021/01/05 02:03:11;;;;;;;;;;;19.20;56.40;;;;;;5052004;28;1331;-70
2021/01/05 02:05:39;;;;;;;;;;;19.20;56.40;;;;;;5051833;28;1314;-69
2021/01/05 02:08:23;;;;;;;;;;;19.20;56.40;;;;;;5048308;28;1204;-69
2021/01/05 02:10:55;;;;;;;;;;;19.20;56.40;;;;;;5052385;28;1297;-69
2021/01/05 02:13:22;;;;;;;;;;;19.20;56.40;;;;;;5053738;28;1341;-69
2021/01/05 02:16:06;;;;;;;;;;;19.20;56.40;;;;;;5051794;28;1335;-68
2021/01/05 02:18:48;;;;;;;;;;;19.20;56.40;;;;;;5039113;28;1951;-69
2021/01/05 02:21:23;;;;;;;;;;;19.20;56.40;;;;;;5067293;28;1450;-68
2021/01/05 02:23:53;;;;;;;;;;;19.20;56.40;;;;;;5070439;28;1375;-69
2021/01/05 02:26:21;;;;;;;;;;;19.20;56.40;;;;;;5070884;28;1419;-69
2021/01/05 02:28:51;;;;;;;;;;;19.20;56.50;;;;;;5071880;28;1295;-69
2021/01/05 02:31:35;;;;;;;;;;;19.20;56.50;;;;;;5072378;28;1307;-69
2021/01/05 02:34:05;;;;;;;;;;;19.20;56.50;;;;;;5070704;28;1319;-70
2021/01/05 02:36:39;;;;;;;;;;;19.20;56.50;;;;;;5034437;28;1910;-69
2021/01/05 02:39:22;;;;;;;;;;;19.20;56.50;;;;;;5052086;28;1385;-69
2021/01/05 02:41:51;;;;;;;;;;;19.20;56.50;;;;;;5051078;28;1273;-68
2021/01/05 02:44:19;;;;;;;;;;;19.20;56.50;;;;;;5050059;28;1473;-69
2021/01/05 02:46:44;;;;;;;;;;;19.20;56.50;;;;;;5033493;28;1439;-69
2021/01/05 02:49:28;;;;;;;;;;;19.20;56.40;;;;;;5051700;28;1360;-69
2021/01/05 02:52:13;;;;;;;;;;;19.20;56.40;;;;;;5051793;28;1238;-68
2021/01/05 02:54:51;;;;;;;;;;;19.20;56.40;;;;;;5053685;28;1265;-70
2021/01/05 02:57:19;;;;;;;;;;;19.20;56.40;;;;;;5074029;28;1910;-70
2021/01/05 03:00:03;;;;;;;;;;;19.20;56.30;;;;;;5062240;28;1267;-70
2021/01/05 03:02:47;;;;;;;;;;;19.20;56.30;;;;;;5052635;28;1208;-71
2021/01/05 03:05:12;;;;;;;;;;;19.20;56.30;;;;;;5055296;28;1336;-70
2021/01/05 03:07:38;;;;;;;;;;;19.20;56.30;;;;;;5054810;28;1284;-70
2021/01/05 03:10:25;;;;;;;;;;;19.20;56.30;;;;;;5054143;28;1315;-70
2021/01/05 03:13:04;;;;;;;;;;;19.20;56.30;;;;;;5057213;28;1370;-70
2021/01/05 03:15:49;;;;;;;;;;;19.30;56.30;;;;;;5053615;28;1332;-69
2021/01/05 03:18:25;;;;;;;;;;;19.30;56.30;;;;;;5056552;28;1965;-70
2021/01/05 03:21:01;;;;;;;;;;;19.30;56.30;;;;;;5035961;28;1267;-69
2021/01/05 03:23:27;;;;;;;;;;;19.30;56.30;;;;;;5050883;28;1518;-69
2021/01/05 03:25:53;;;;;;;;;;;19.20;56.20;;;;;;5034557;28;1315;-70
2021/01/05 03:28:20;;;;;;;;;;;19.30;56.30;;;;;;5036871;28;1301;-70
2021/01/05 03:30:47;;;;;;;;;;;19.20;56.20;;;;;;5053605;28;1367;-70
2021/01/05 03:33:13;;;;;;;;;;;19.20;56.20;;;;;;5036377;28;1164;-70
2021/01/05 03:35:38;;;;;;;;;;;19.30;56.30;;;;;;5053066;28;1369;-70
2021/01/05 03:38:04;;;;;;;;;;;19.20;56.20;;;;;;5053220;28;2005;-71
2021/01/05 03:40:29;;;;;;;;;;;19.20;56.20;;;;;;5067657;28;1336;-70
2021/01/05 03:42:55;;;;;;;;;;;19.30;56.20;;;;;;5074916;28;1324;-69
2021/01/05 03:45:27;;;;;;;;;;;19.30;56.30;;;;;;5074383;28;1441;-70
2021/01/05 03:47:53;;;;;;;;;;;19.20;56.20;;;;;;5068615;28;1231;-70
2021/01/05 03:50:26;;;;;;;;;;;19.30;56.30;;;;;;5071310;28;1297;-70
2021/01/05 03:52:51;;;;;;;;;;;19.30;56.30;;;;;;5053510;28;1779;-69
2021/01/05 03:55:17;;;;;;;;;;;19.30;56.20;;;;;;5053990;28;1301;-70
2021/01/05 03:57:42;;;;;;;;;;;19.30;56.30;;;;;;5060925;28;1967;-70
2021/01/05 04:00:09;;;;;;;;;;;19.30;56.30;;;;;;5058138;28;1342;-69
2021/01/05 04:02:34;;;;;;;;;;;19.20;56.20;;;;;;5054215;28;1306;-70
2021/01/05 04:05:00;;;;;;;;;;;19.30;56.20;;;;;;5052770;28;1401;-69
2021/01/05 04:07:25;;;;;;;;;;;19.30;56.20;;;;;;5053895;28;1338;-69
2021/01/05 04:09:50;;;;;;;;;;;19.30;56.20;;;;;;5054246;28;1361;-69
2021/01/05 04:12:16;;;;;;;;;;;19.30;56.20;;;;;;5053915;28;1244;-69
2021/01/05 04:14:42;;;;;;;;;;;19.30;56.30;;;;;;5055699;28;1198;-70
2021/01/05 04:17:07;;;;;;;;;;;19.30;56.30;;;;;;5053847;28;1902;-70
2021/01/05 04:19:33;;;;;;;;;;;19.30;56.30;;;;;;5052621;28;1366;-70
2021/01/05 04:21:58;;;;;;;;;;;19.30;56.30;;;;;;5053666;28;1124;-70
2021/01/05 04:24:23;;;;;;;;;;;19.30;56.30;;;;;;5053518;28;1410;-70
2021/01/05 04:26:49;;;;;;;;;;;19.30;56.30;;;;;;5053130;28;1120;-69
2021/01/05 04:29:14;;;;;;;;;;;19.30;56.30;;;;;;5054174;28;1319;-70
2021/01/05 04:31:40;;;;;;;;;;;19.30;56.30;;;;;;5053956;28;1270;-69
2021/01/05 04:34:06;;;;;;;;;;;19.30;56.20;;;;;;5051979;28;1466;-70
2021/01/05 04:36:31;;;;;;;;;;;19.30;56.30;;;;;;5052043;28;1894;-69
2021/01/05 04:38:57;;;;;;;;;;;19.30;56.20;;;;;;5068696;28;1307;-70
2021/01/05 04:41:22;;;;;;;;;;;19.30;56.20;;;;;;5073842;28;1358;-70
2021/01/05 04:43:51;;;;;;;;;;;19.30;56.30;;;;;;5071828;28;1321;-69
2021/01/05 04:46:17;;;;;;;;;;;19.30;56.20;;;;;;5073439;28;1330;-70
2021/01/05 04:48:46;;;;;;;;;;;19.20;56.80;;;;;;5073404;28;1400;-70
2021/01/05 04:51:23;;;;;;;;;;;19.20;56.20;;;;;;5064141;28;1300;-70
2021/01/05 04:53:50;;;;;;;;;;;19.20;56.20;;;;;;5051616;28;1316;-69
2021/01/05 04:56:15;;;;;;;;;;;19.20;56.20;;;;;;5051818;28;1313;-69
2021/01/05 04:58:44;;;;;;;;;;;19.20;56.20;;;;;;5063837;28;1942;-70
2021/01/05 05:01:12;;;;;;;;;;;19.20;56.20;;;;;;5053388;28;1395;-70
2021/01/05 05:03:50;;;;;;;;;;;19.20;56.20;;;;;;5051225;28;1432;-69
2021/01/05 05:06:16;;;;;;;;;;;19.20;56.20;;;;;;5065158;28;1399;-68
2021/01/05 05:08:41;;;;;;;;;;;19.30;56.30;;;;;;5072596;28;1437;-70
2021/01/05 05:11:09;;;;;;;;;;;19.30;56.20;;;;;;5073219;28;1267;-69
2021/01/05 05:13:46;;;;;;;;;;;19.20;56.20;;;;;;5064167;28;1176;-70
2021/01/05 05:16:31;;;;;;;;;;;19.30;56.30;;;;;;5050586;28;1200;-70
2021/01/05 05:19:15;;;;;;;;;;;19.30;56.20;;;;;;5053101;28;1476;-69
2021/01/05 05:21:50;;;;;;;;;;;19.30;56.20;;;;;;5053143;28;1391;-69
2021/01/05 05:24:24;;;;;;;;;;;19.30;56.20;;;;;;5050658;28;1740;-70
2021/01/05 05:27:01;;;;;;;;;;;19.30;56.20;;;;;;5052640;28;1270;-69
2021/01/05 05:29:26;;;;;;;;;;;19.30;56.20;;;;;;5034958;28;1603;-69
2021/01/05 05:31:52;;;;;;;;;;;19.30;56.20;;;;;;5052776;28;1311;-69
2021/01/05 05:34:33;;;;;;;;;;;19.30;56.20;;;;;;5052294;28;1367;-70
2021/01/05 05:37:18;;;;;;;;;;;19.30;56.20;;;;;;5050899;28;1902;-67
2021/01/05 05:39:47;;;;;;;;;;;19.30;56.20;;;;;;5051308;28;1315;-70
2021/01/05 05:42:16;;;;;;;;;;;19.30;56.20;;;;;;5051573;28;1159;-70
2021/01/05 05:44:44;;;;;;;;;;;19.30;56.20;;;;;;5051728;28;1296;-70
2021/01/05 05:47:20;;;;;;;;;;;19.30;56.20;;;;;;5052092;28;1329;-70
2021/01/05 05:49:48;;;;;;;;;;;19.30;56.20;;;;;;5051135;28;1389;-70
2021/01/05 05:52:40;;;;;;;;;;;19.30;56.20;;;;;;5052556;28;1281;-70
2021/01/05 05:55:26;;;;;;;;;;;19.30;56.20;;;;;;5048096;28;1264;-69
2021/01/05 05:57:51;;;;;;;;;;;19.30;56.20;;;;;;5046807;28;1905;-69
2021/01/05 06:00:17;;;;;;;;;;;19.30;56.20;;;;;;5036581;28;1334;-69
2021/01/05 06:02:42;;;;;;;;;;;19.30;56.20;;;;;;5051954;28;1353;-69
2021/01/05 06:05:16;;;;;;;;;;;19.30;56.20;;;;;;5051501;28;1519;-69
2021/01/05 06:07:41;;;;;;;;;;;19.30;56.20;;;;;;5050750;28;1003;-69
2021/01/05 06:10:07;;;;;;;;;;;19.30;56.20;;;;;;5051922;28;1394;-69
2021/01/05 06:12:32;;;;;;;;;;;19.30;56.20;;;;;;5053472;28;1076;-69
2021/01/05 06:14:58;;;;;;;;;;;19.30;56.20;;;;;;5053552;28;1398;-68
2021/01/05 06:17:23;;;;;;;;;;;19.30;56.20;;;;;;5052389;28;1905;-69
2021/01/05 06:19:49;;;;;;;;;;;19.30;56.20;;;;;;5052129;28;1311;-69
2021/01/05 06:22:14;;;;;;;;;;;19.30;56.20;;;;;;5051780;28;1284;-69
2021/01/05 06:24:40;;;;;;;;;;;19.30;56.20;;;;;;5055548;28;1340;-68
2021/01/05 06:27:05;;;;;;;;;;;19.30;56.20;;;;;;5071897;28;1107;-69
2021/01/05 06:29:31;;;;;;;;;;;19.30;56.20;;;;;;5075193;28;1319;-68
2021/01/05 06:31:56;;;;;;;;;;;19.30;56.20;;;;;;5076077;28;1252;-69
2021/01/05 06:34:21;;;;;;;;;;;19.30;56.20;;;;;;5075472;28;1359;-69
2021/01/05 06:36:47;;;;;;;;;;;19.30;56.20;;;;;;5075812;28;1898;-69
2021/01/05 06:39:12;;;;;;;;;;;19.30;56.20;;;;;;5075413;28;1279;-69
2021/01/05 06:41:38;;;;;;;;;;;19.30;56.20;;;;;;5075792;28;1312;-69
2021/01/05 06:44:04;;;;;;;;;;;19.30;56.20;;;;;;5075627;28;1348;-69
2021/01/05 06:46:29;;;;;;;;;;;19.30;56.20;;;;;;5075476;28;1311;-69
2021/01/05 06:48:54;;;;;;;;;;;19.30;56.30;;;;;;5057468;28;1341;-69
2021/01/05 06:51:20;;;;;;;;;;;19.30;56.20;;;;;;5065326;28;1287;-69
2021/01/05 06:53:45;;;;;;;;;;;19.30;56.30;;;;;;5055210;28;1040;-69
2021/01/05 06:56:14;;;;;;;;;;;19.30;56.30;;;;;;5055093;28;1218;-69
2021/01/05 06:58:39;;;;;;;;;;;19.30;56.30;;;;;;5067867;28;1898;-69
2021/01/05 07:01:05;;;;;;;;;;;19.30;56.20;;;;;;5054440;28;1147;-69
2021/01/05 07:03:30;;;;;;;;;;;19.30;56.30;;;;;;5053393;28;1443;-69
2021/01/05 07:05:56;;;;;;;;;;;19.30;56.30;;;;;;5055151;28;1323;-69
2021/01/05 07:08:21;;;;;;;;;;;19.30;56.30;;;;;;5055542;28;1361;-69
2021/01/05 07:10:47;;;;;;;;;;;19.30;56.30;;;;;;5055517;28;1084;-69
2021/01/05 07:13:12;;;;;;;;;;;19.30;56.30;;;;;;5058693;28;1286;-69
2021/01/05 07:15:38;;;;;;;;;;;19.30;56.20;;;;;;5054392;28;1330;-69
2021/01/05 07:18:03;;;;;;;;;;;19.30;56.20;;;;;;5055033;28;1890;-69
2021/01/05 07:20:29;;;;;;;;;;;19.30;56.20;;;;;;5055794;28;1280;-69
2021/01/05 07:22:54;;;;;;;;;;;19.30;56.30;;;;;;5055242;28;1340;-69
2021/01/05 07:25:20;;;;;;;;;;;19.30;56.30;;;;;;5054617;28;1299;-69
2021/01/05 07:27:45;;;;;;;;;;;19.20;56.20;;;;;;5054433;28;1100;-69
2021/01/05 07:30:11;;;;;;;;;;;19.30;56.30;;;;;;5055047;28;1096;-69
2021/01/05 07:32:36;;;;;;;;;;;19.20;56.20;;;;;;5055090;28;1293;-69
2021/01/05 07:35:02;;;;;;;;;;;19.30;56.30;;;;;;5054983;28;1295;-69
2021/01/05 07:37:29;;;;;;;;;;;19.30;56.90;;;;;;5055408;28;1953;-69
2021/01/05 07:39:54;;;;;;;;;;;19.30;56.30;;;;;;5053638;28;1352;-69
2021/01/05 07:42:27;;;;;;;;;;;19.30;56.30;;;;;;5055279;28;1398;-69
2021/01/05 07:44:53;;;;;;;;;;;19.30;56.30;;;;;;5053800;28;1284;-69
2021/01/05 07:47:19;;;;;;;;;;;19.30;56.30;;;;;;5054987;28;1136;-68
2021/01/05 07:49:45;;;;;;;;;;;19.30;56.30;;;;;;5053186;28;1352;-68
2021/01/05 07:52:16;;;;;;;;;;;19.30;56.30;;;;;;5053213;28;1292;-68
2021/01/05 07:54:42;;;;;;;;;;;19.30;56.30;;;;;;5054061;28;1367;-68
2021/01/05 07:57:07;;;;;;;;;;;19.30;56.30;;;;;;5057645;28;1894;-68
2021/01/05 07:59:33;;;;;;;;;;;19.30;56.30;;;;;;5062854;28;1502;-68
2021/01/05 08:01:58;;;;;;;;;;;19.30;56.30;;;;;;5053976;28;1425;-68
2021/01/05 08:04:24;;;;;;;;;;;19.20;56.30;;;;;;5052394;28;1647;-68
2021/01/05 08:06:49;;;;;;;;;;;19.30;56.30;;;;;;5034776;28;1348;-68
2021/01/05 08:09:15;;;;;;;;;;;19.30;56.30;;;;;;5054013;28;1305;-68
2021/01/05 08:11:40;;;;;;;;;;;19.20;56.30;;;;;;5054027;28;1092;-68
2021/01/05 08:14:06;;;;;;;;;;;19.30;56.30;;;;;;5056727;28;1305;-68
2021/01/05 08:16:31;;;;;;;;;;;19.20;56.20;;;;;;5053907;28;1411;-68
2021/01/05 08:18:57;;;;;;;;;;;19.30;56.30;;;;;;5052613;28;1898;-68
2021/01/05 08:21:25;;;;;;;;;;;19.20;56.30;;;;;;5053974;28;1256;-68
2021/01/05 08:23:51;;;;;;;;;;;19.30;56.30;;;;;;5053787;28;1261;-68
2021/01/05 08:26:16;;;;;;;;;;;19.30;56.30;;;;;;5052146;28;1282;-68
2021/01/05 08:28:42;;;;;;;;;;;19.30;56.10;;;;;;5052702;28;1056;-68
2021/01/05 08:31:07;;;;;;;;;;;19.30;56.00;;;;;;5054363;28;1312;-68
2021/01/05 08:33:33;;;;;;;;;;;19.40;56.00;;;;;;5053738;28;1139;-68
2021/01/05 08:35:58;;;;;;;;;;;19.40;55.90;;;;;;5052111;28;1230;-68
2021/01/05 08:38:24;;;;;;;;;;;19.40;55.80;;;;;;5053644;28;1968;-68
2021/01/05 08:40:49;;;;;;;;;;;19.50;55.80;;;;;;5053446;28;1336;-68
2021/01/05 08:43:15;;;;;;;;;;;19.50;55.70;;;;;;5053970;28;1100;-69
2021/01/05 08:45:40;;;;;;;;;;;19.50;56.30;;;;;;5052506;28;1347;-69
2021/01/05 08:48:06;;;;;;;;;;;19.50;55.70;;;;;;5053349;28;1092;-69
2021/01/05 08:50:32;;;;;;;;;;;19.50;55.60;;;;;;5051844;28;1395;-69
2021/01/05 08:52:58;;;;;;;;;;;19.50;55.60;;;;;;5051606;28;1355;-69
2021/01/05 08:55:24;;;;;;;;;;;19.60;55.60;;;;;;5051117;28;1386;-69
2021/01/05 08:57:49;;;;;;;;;;;19.60;55.60;;;;;;5060932;28;1898;-69
2021/01/05 09:00:15;;;;;;;;;;;19.60;55.60;;;;;;5056643;28;1091;-69
2021/01/05 09:02:40;;;;;;;;;;;19.60;55.60;;;;;;5052908;28;1343;-69
2021/01/05 09:05:06;;;;;;;;;;;19.60;55.50;;;;;;5052618;28;1373;-69
2021/01/05 09:07:32;;;;;;;;;;;19.60;55.50;;;;;;5052785;28;1088;-68
2021/01/05 09:09:57;;;;;;;;;;;19.60;55.50;;;;;;5053144;28;1085;-68
2021/01/05 09:12:22;;;;;;;;;;;19.60;55.50;;;;;;5053094;28;1315;-69
2021/01/05 09:14:48;;;;;;;;;;;19.60;55.50;;;;;;5055758;28;1326;-69
2021/01/05 09:17:13;;;;;;;;;;;19.60;55.60;;;;;;5052627;28;1902;-69
2021/01/05 09:19:39;;;;;;;;;;;19.60;55.60;;;;;;5051937;28;1079;-69
2021/01/05 09:22:05;;;;;;;;;;;19.60;55.60;;;;;;5053104;28;1279;-69
2021/01/05 09:24:30;;;;;;;;;;;19.50;55.60;;;;;;5052219;28;1323;-69
2021/01/05 09:26:56;;;;;;;;;;;19.50;55.60;;;;;;5052208;28;1339;-69
2021/01/05 09:29:22;;;;;;;;;;;19.50;55.60;;;;;;5049358;28;1414;-69
2021/01/05 09:31:48;;;;;;;;;;;19.50;55.60;;;;;;5043124;28;1019;-69
2021/01/05 09:34:14;;;;;;;;;;;19.50;55.70;;;;;;5053728;28;1481;-69
2021/01/05 09:36:39;;;;;;;;;;;19.50;55.70;;;;;;5070256;28;1955;-68
2021/01/05 09:39:05;;;;;;;;;;;19.50;55.70;;;;;;5053581;28;906;-68
2021/01/05 09:41:32;;;;;;;;;;;19.50;55.70;;;;;;5051651;28;1367;-68
2021/01/05 09:43:57;;;;;;;;;;;19.50;55.80;;;;;;5051427;28;1144;-68
2021/01/05 09:46:23;;;;;;;;;;;19.50;55.70;;;;;;5051706;28;1663;-68
2021/01/05 09:48:49;;;;;;;;;;;19.50;55.80;;;;;;5051414;28;1265;-68
2021/01/05 09:51:27;;;;;;;;;;;19.50;55.80;;;;;;5050314;28;1313;-68
2021/01/05 09:53:53;;;;;;;;;;;19.50;55.80;;;;;;5050693;28;1462;-68
2021/01/05 09:56:18;;;;;;;;;;;19.50;55.80;;;;;;5051182;28;1302;-68
2021/01/05 09:58:44;;;;;;;;;;;19.50;55.80;;;;;;5063857;28;1906;-68
2021/01/05 10:01:09;;;;;;;;;;;19.50;55.80;;;;;;5051499;28;1319;-68
2021/01/05 10:03:35;;;;;;;;;;;19.50;55.80;;;;;;5048990;28;1075;-68
2021/01/05 10:06:00;;;;;;;;;;;19.50;55.80;;;;;;5050002;28;1316;-68
2021/01/05 10:08:26;;;;;;;;;;;19.50;55.70;;;;;;5051273;28;1092;-68
2021/01/05 10:10:51;;;;;;;;;;;19.50;55.60;;;;;;5051238;28;1080;-68
2021/01/05 10:13:17;;;;;;;;;;;19.60;55.60;;;;;;5054885;28;1346;-68
2021/01/05 10:15:42;;;;;;;;;;;19.60;55.50;;;;;;5051014;28;1324;-68
2021/01/05 10:18:08;;;;;;;;;;;19.70;55.40;;;;;;5050805;28;1926;-68
2021/01/05 10:20:33;;;;;;;;;;;19.80;55.20;;;;;;5051250;28;1295;-68
2021/01/05 10:22:59;;;;;;;;;;;19.80;55.00;;;;;;5051138;28;1159;-68
2021/01/05 10:25:24;;;;;;;;;;;19.90;54.90;;;;;;5050856;28;1362;-68
2021/01/05 10:27:50;;;;;;;;;;;20.00;54.80;;;;;;5051000;28;1317;-69
2021/01/05 10:30:16;;;;;;;;;;;20.10;54.60;;;;;;5051250;28;1259;-68
2021/01/05 10:32:42;;;;;;;;;;;20.10;54.40;;;;;;5050877;28;1331;-68
2021/01/05 10:35:08;;;;;;;;;;;20.30;54.30;;;;;;5050509;28;1331;-68
2021/01/05 10:37:34;;;;;;;;;;;20.30;54.10;;;;;;5049529;28;1914;-68
2021/01/05 10:39:59;;;;;;;;;;;20.40;53.90;;;;;;5051463;28;1045;-68
2021/01/05 10:42:24;;;;;;;;;;;20.50;53.70;;;;;;5054049;28;1179;-68
2021/01/05 10:44:50;;;;;;;;;;;20.50;53.50;;;;;;5060922;28;1290;-68
2021/01/05 10:47:15;;;;;;;;;;;20.60;53.40;;;;;;5067108;28;1300;-68
2021/01/05 10:49:41;;;;;;;;;;;20.70;53.20;;;;;;5069912;28;1403;-68
2021/01/05 10:52:10;;;;;;;;;;;20.80;53.20;;;;;;5052614;28;1213;-67
2021/01/05 10:54:35;;;;;;;;;;;20.80;53.00;;;;;;5038022;28;1817;-66
2021/01/05 10:57:02;;;;;;;;;;;20.90;52.90;;;;;;5048461;28;1977;-67
2021/01/05 10:59:27;;;;;;;;;;;20.90;52.80;;;;;;5058800;28;1098;-66
2021/01/05 11:01:55;;;;;;;;;;;21.00;52.70;;;;;;5065356;28;1270;-66
2021/01/05 11:04:21;;;;;;;;;;;21.00;52.60;;;;;;5057470;28;1299;-66
2021/01/05 11:06:54;;;;;;;;;;;21.00;52.50;;;;;;5064187;28;1293;-67
2021/01/05 11:09:20;;;;;;;;;;;21.10;52.50;;;;;;5015893;28;1093;-66
2021/01/05 11:11:47;;;;;;;;;;;21.10;52.40;;;;;;5051143;28;1096;-67
2021/01/05 11:14:12;;;;;;;;;;;21.10;52.30;;;;;;5066125;28;1365;-67
2021/01/05 11:16:38;;;;;;;;;;;21.20;52.30;;;;;;5055760;28;1096;-66
2021/01/05 11:19:03;;;;;;;;;;;21.20;52.20;;;;;;5054532;28;1959;-67
2021/01/05 11:21:29;;;;;;;;;;;21.20;52.20;;;;;;5071644;28;1368;-65
2021/01/05 11:23:54;;;;;;;;;;;21.20;52.20;;;;;;5062601;28;1072;-68
2021/01/05 11:26:20;;;;;;;;;;;21.20;52.10;;;;;;5053520;28;1221;-66
2021/01/05 11:28:45;;;;;;;;;;;21.20;52.10;;;;;;5065288;28;1151;-68
2021/01/05 11:31:12;;;;;;;;;;;21.30;52.10;;;;;;5055208;28;1273;-68
2021/01/05 11:33:37;;;;;;;;;;;21.30;52.20;;;;;;5063092;28;1034;-68
2021/01/05 11:36:03;;;;;;;;;;;21.30;52.20;;;;;;5060099;28;1839;-70
2021/01/05 11:38:28;;;;;;;;;;;21.30;52.10;;;;;;5065044;28;1898;-70
2021/01/05 11:40:54;;;;;;;;;;;21.30;52.10;;;;;;5073838;28;1270;-70
2021/01/05 11:43:19;;;;;;;;;;;21.30;52.20;;;;;;5062591;28;1099;-67
2021/01/05 11:45:45;;;;;;;;;;;21.30;52.20;;;;;;5053190;28;1353;-67
2021/01/05 11:48:10;;;;;;;;;;;21.30;52.20;;;;;;5053615;28;1126;-66
2021/01/05 11:50:36;;;;;;;;;;;21.30;52.20;;;;;;5053688;28;1108;-66
2021/01/05 11:53:01;;;;;;;;;;;21.30;52.30;;;;;;5053816;28;839;-67
2021/01/05 11:55:27;;;;;;;;;;;21.30;52.30;;;;;;5062252;22;3739;-67
2021/01/05 11:57:52;;;;;;;;;;;21.30;52.30;;;;;;5045742;28;2051;-67
2021/01/05 12:00:18;;;;;;;;;;;21.30;52.30;;;;;;5044874;28;1877;-67
2021/01/05 12:02:44;;;;;;;;;;;21.30;52.30;;;;;;5048911;28;2361;-67
2021/01/05 12:05:13;;;;;;;;;;;21.20;52.30;;;;;;5050326;28;1634;-67
2021/01/05 12:07:38;;;;;;;;;;;21.30;52.40;;;;;;5053880;28;1296;-67
2021/01/05 12:10:04;;;;;;;;;;;21.30;52.30;;;;;;5054186;28;1385;-67
2021/01/05 12:12:29;;;;;;;;;;;21.30;52.30;;;;;;5054653;28;1116;-67
2021/01/05 12:14:55;;;;;;;;;;;21.30;52.30;;;;;;5025283;28;1500;-67
2021/01/05 12:17:20;;;;;;;;;;;21.30;52.40;;;;;;5054458;28;1903;-67
2021/01/05 12:19:46;;;;;;;;;;;21.20;52.30;;;;;;5053581;28;1348;-67
2021/01/05 12:22:11;;;;;;;;;;;21.20;52.40;;;;;;5053850;28;1337;-67
2021/01/05 12:24:38;;;;;;;;;;;21.20;52.40;;;;;;5035261;28;1363;-67
2021/01/05 12:27:04;;;;;;;;;;;21.20;52.50;;;;;;5052934;28;1300;-67
2021/01/05 12:29:32;;;;;;;;;;;21.20;52.50;;;;;;5035629;28;1371;-67
2021/01/05 12:32:00;;;;;;;;;;;21.20;52.60;;;;;;5036274;28;1291;-67
2021/01/05 12:34:26;;;;;;;;;;;21.20;52.60;;;;;;5053455;28;1512;-67
2021/01/05 12:36:52;;;;;;;;;;;21.20;52.60;;;;;;5036063;28;1907;-67
2021/01/05 12:39:18;;;;;;;;;;;21.10;52.60;;;;;;5053762;28;1308;-67
2021/01/05 12:41:44;;;;;;;;;;;21.10;52.70;;;;;;5036222;28;1302;-67
2021/01/05 12:44:09;;;;;;;;;;;21.10;52.80;;;;;;5053427;28;1232;-67
2021/01/05 12:46:36;;;;;;;;;;;21.10;53.40;;;;;;5053490;28;1744;-68
2021/01/05 12:49:02;;;;;;;;;;;21.10;52.90;;;;;;5035050;28;1319;-68
2021/01/05 12:51:45;;;;;;;;;;;21.00;52.90;;;;;;5053644;28;1169;-68
2021/01/05 12:54:12;;;;;;;;;;;21.00;52.90;;;;;;5053072;28;1275;-68
2021/01/05 12:56:38;;;;;;;;;;;21.00;53.00;;;;;;5034901;28;1286;-68
2021/01/05 12:59:03;;;;;;;;;;;21.00;53.00;;;;;;5047030;28;1910;-68
2021/01/05 13:01:29;;;;;;;;;;;20.90;53.00;;;;;;5052907;28;1446;-68
2021/01/05 13:03:54;;;;;;;;;;;20.90;53.10;;;;;;5052887;28;1359;-67
2021/01/05 13:06:20;;;;;;;;;;;20.90;53.10;;;;;;5034840;28;1358;-67
2021/01/05 13:08:45;;;;;;;;;;;20.90;53.20;;;;;;5053137;28;1291;-67
2021/01/05 13:11:12;;;;;;;;;;;20.90;53.20;;;;;;5047517;28;1856;-67
2021/01/05 13:13:40;;;;;;;;;;;20.90;53.30;;;;;;5055615;28;1120;-67
2021/01/05 13:16:06;;;;;;;;;;;20.90;53.30;;;;;;5040760;28;1360;-67
2021/01/05 13:18:32;;;;;;;;;;;20.80;53.30;;;;;;5034881;28;1902;-67
2021/01/05 13:20:57;;;;;;;;;;;20.80;53.40;;;;;;5053005;28;1318;-68
2021/01/05 13:23:22;;;;;;;;;;;20.80;53.40;;;;;;5052744;28;1316;-67
2021/01/05 13:25:48;;;;;;;;;;;20.80;53.50;;;;;;5051915;28;1255;-67
2021/01/05 13:28:13;;;;;;;;;;;20.80;53.50;;;;;;5052812;28;1300;-67
2021/01/05 13:30:39;;;;;;;;;;;20.80;53.50;;;;;;5053009;28;1316;-67
2021/01/05 13:33:04;;;;;;;;;;;20.70;53.50;;;;;;5052293;28;1363;-67
2021/01/05 13:35:30;;;;;;;;;;;20.70;53.60;;;;;;5052337;28;1316;-67
2021/01/05 13:37:55;;;;;;;;;;;20.70;53.60;;;;;;5051939;28;1982;-67
2021/01/05 13:40:21;;;;;;;;;;;20.70;53.70;;;;;;5052596;28;1340;-67
2021/01/05 13:42:46;;;;;;;;;;;20.70;53.70;;;;;;5034315;28;1280;-67
2021/01/05 13:45:14;;;;;;;;;;;20.70;53.70;;;;;;5052231;28;1359;-68
2021/01/05 13:47:40;;;;;;;;;;;20.70;53.80;;;;;;5052233;28;1331;-67
2021/01/05 13:50:06;;;;;;;;;;;20.60;53.80;;;;;;5052629;28;1168;-67
2021/01/05 13:52:31;;;;;;;;;;;20.60;53.80;;;;;;5052682;28;997;-68
2021/01/05 13:54:57;;;;;;;;;;;20.60;53.90;;;;;;5051638;28;1343;-67
2021/01/05 13:57:23;;;;;;;;;;;20.60;53.90;;;;;;5057605;28;1957;-68
2021/01/05 13:59:48;;;;;;;;;;;20.60;53.90;;;;;;5059112;28;2091;-67
2021/01/05 14:02:14;;;;;;;;;;;20.60;54.00;;;;;;5052735;28;1364;-67
2021/01/05 14:04:39;;;;;;;;;;;20.60;54.00;;;;;;5051912;28;1384;-70
2021/01/05 14:07:09;;;;;;;;;;;20.50;54.00;;;;;;5033831;28;1335;-69
2021/01/05 14:09:34;;;;;;;;;;;20.50;54.10;;;;;;5034199;28;1260;-68
2021/01/05 14:12:00;;;;;;;;;;;20.50;54.10;;;;;;5047027;28;1974;-68
2021/01/05 14:14:26;;;;;;;;;;;20.50;54.20;;;;;;5028590;28;1136;-67
2021/01/05 14:16:52;;;;;;;;;;;20.50;54.20;;;;;;5011697;28;1902;-67
2021/01/05 14:19:17;;;;;;;;;;;20.50;54.20;;;;;;5019670;28;1432;-66
2021/01/05 14:21:43;;;;;;;;;;;20.50;54.30;;;;;;5049539;28;963;-67
2021/01/05 14:24:16;;;;;;;;;;;20.40;54.30;;;;;;5050732;28;1282;-68
2021/01/05 14:26:41;;;;;;;;;;;20.40;54.30;;;;;;5050073;28;1661;-68
2021/01/05 14:29:07;;;;;;;;;;;20.40;54.30;;;;;;5049724;28;1348;-67
2021/01/05 14:31:33;;;;;;;;;;;20.40;54.40;;;;;;5038966;28;1403;-67